ハバロフスク の空港の天気 - METARとTAF

ハバロフスク空港 ( UHHH / KHV ) - ロシア ハバロフスク
飛行場実況気象(Metar)
観測時間03/29 07:00 +10 (03/28 21:00 UTC)
風向・風速北東 2m/s
視程10km以上
天気現象
なし
気温-4℃
湿度86%
気圧1013hPa
METARUHHH 282100Z 04002MPS CAVOK M04/M06 Q1013 R23L/090060 NOSIG RMK QFE753/1005
過去の天気等 Google飛行場航空写真 Wunderground天気予報

過去48時間のMETAR

飛行場予報(TAF)
発表時間: 3/29 05:47 +10 (3/28 19:47 UTC)
予報対象時間: 29日7時 +10 ~ 30日13時 +10
風向・風速東南東 3m/s
視程10km以上
全天の4割程度の雲 雲底高度 610m
29日11時 +10 ~ 29日13時 +10 に徐々に
風向・風速北東 3m/s
TAF UHHH 281947Z 2821/3003 12003MPS 9999 SCT020
BECMG 2901/2903 05003MPS